sensor_id;sensor_type;location;lat;lon;timestamp;temperature;humidity
16402;DHT22;8310;44.626;11.176;2022-07-23T00:01:36;30.30;35.10
16402;DHT22;8310;44.626;11.176;2022-07-23T00:04:06;30.20;35.00
16402;DHT22;8310;44.626;11.176;2022-07-23T00:06:34;30.30;35.10
16402;DHT22;8310;44.626;11.176;2022-07-23T00:09:02;30.20;35.10
16402;DHT22;8310;44.626;11.176;2022-07-23T00:11:30;30.20;35.70
16402;DHT22;8310;44.626;11.176;2022-07-23T00:13:58;30.20;35.10
16402;DHT22;8310;44.626;11.176;2022-07-23T00:16:26;30.20;35.10
16402;DHT22;8310;44.626;11.176;2022-07-23T00:18:53;30.20;35.10
16402;DHT22;8310;44.626;11.176;2022-07-23T00:21:23;30.20;35.20
16402;DHT22;8310;44.626;11.176;2022-07-23T00:23:51;30.10;35.10
16402;DHT22;8310;44.626;11.176;2022-07-23T00:26:19;30.10;35.20
16402;DHT22;8310;44.626;11.176;2022-07-23T00:28:47;30.10;35.20
16402;DHT22;8310;44.626;11.176;2022-07-23T00:31:14;30.10;35.20
16402;DHT22;8310;44.626;11.176;2022-07-23T00:33:42;30.10;35.30
16402;DHT22;8310;44.626;11.176;2022-07-23T00:36:12;30.10;35.40
16402;DHT22;8310;44.626;11.176;2022-07-23T00:38:42;30.00;35.20
16402;DHT22;8310;44.626;11.176;2022-07-23T00:41:10;30.00;35.30
16402;DHT22;8310;44.626;11.176;2022-07-23T00:43:39;30.00;35.30
16402;DHT22;8310;44.626;11.176;2022-07-23T00:46:08;30.00;35.90
16402;DHT22;8310;44.626;11.176;2022-07-23T00:48:40;29.90;35.30
16402;DHT22;8310;44.626;11.176;2022-07-23T00:51:07;29.90;35.30
16402;DHT22;8310;44.626;11.176;2022-07-23T00:53:35;29.90;35.40
16402;DHT22;8310;44.626;11.176;2022-07-23T00:56:06;29.90;35.30
16402;DHT22;8310;44.626;11.176;2022-07-23T00:58:35;29.80;35.30
16402;DHT22;8310;44.626;11.176;2022-07-23T01:01:03;29.80;35.30
16402;DHT22;8310;44.626;11.176;2022-07-23T01:03:31;29.70;35.30
16402;DHT22;8310;44.626;11.176;2022-07-23T01:05:59;29.70;35.30
16402;DHT22;8310;44.626;11.176;2022-07-23T01:08:27;29.70;35.30
16402;DHT22;8310;44.626;11.176;2022-07-23T01:10:55;29.60;35.30
16402;DHT22;8310;44.626;11.176;2022-07-23T01:13:25;29.60;35.30
16402;DHT22;8310;44.626;11.176;2022-07-23T01:15:53;29.60;35.40
16402;DHT22;8310;44.626;11.176;2022-07-23T01:18:21;29.60;35.40
16402;DHT22;8310;44.626;11.176;2022-07-23T01:20:49;29.50;35.40
16402;DHT22;8310;44.626;11.176;2022-07-23T01:23:19;29.50;35.40
16402;DHT22;8310;44.626;11.176;2022-07-23T01:25:48;29.50;35.40
16402;DHT22;8310;44.626;11.176;2022-07-23T01:28:16;29.50;35.50
16402;DHT22;8310;44.626;11.176;2022-07-23T01:30:44;29.50;35.50
16402;DHT22;8310;44.626;11.176;2022-07-23T01:33:12;29.40;35.40
16402;DHT22;8310;44.626;11.176;2022-07-23T01:35:40;29.30;35.40
16402;DHT22;8310;44.626;11.176;2022-07-23T01:38:08;29.30;35.40
16402;DHT22;8310;44.626;11.176;2022-07-23T01:40:37;29.20;35.30
16402;DHT22;8310;44.626;11.176;2022-07-23T01:43:05;29.10;35.30
16402;DHT22;8310;44.626;11.176;2022-07-23T01:45:32;29.10;35.30
16402;DHT22;8310;44.626;11.176;2022-07-23T01:48:01;29.00;35.30
16402;DHT22;8310;44.626;11.176;2022-07-23T01:50:30;28.90;35.30
16402;DHT22;8310;44.626;11.176;2022-07-23T01:52:58;28.90;35.40
16402;DHT22;8310;44.626;11.176;2022-07-23T01:55:25;28.80;35.30
16402;DHT22;8310;44.626;11.176;2022-07-23T01:57:54;28.80;35.40
16402;DHT22;8310;44.626;11.176;2022-07-23T02:00:22;28.70;35.40
16402;DHT22;8310;44.626;11.176;2022-07-23T02:02:50;28.70;35.50
16402;DHT22;8310;44.626;11.176;2022-07-23T02:05:18;28.60;35.40
16402;DHT22;8310;44.626;11.176;2022-07-23T02:07:46;28.60;35.40
16402;DHT22;8310;44.626;11.176;2022-07-23T02:10:14;28.50;35.40
16402;DHT22;8310;44.626;11.176;2022-07-23T02:12:42;28.50;35.40
16402;DHT22;8310;44.626;11.176;2022-07-23T02:15:12;28.40;35.40
16402;DHT22;8310;44.626;11.176;2022-07-23T02:17:40;28.40;35.50
16402;DHT22;8310;44.626;11.176;2022-07-23T02:20:10;28.40;35.50
16402;DHT22;8310;44.626;11.176;2022-07-23T02:22:38;28.40;35.60
16402;DHT22;8310;44.626;11.176;2022-07-23T02:25:07;28.40;35.70
16402;DHT22;8310;44.626;11.176;2022-07-23T02:27:35;28.40;35.70
16402;DHT22;8310;44.626;11.176;2022-07-23T02:30:03;28.40;35.70
16402;DHT22;8310;44.626;11.176;2022-07-23T02:32:34;28.40;35.70
16402;DHT22;8310;44.626;11.176;2022-07-23T02:35:07;28.40;35.80
16402;DHT22;8310;44.626;11.176;2022-07-23T02:37:36;28.30;35.70
16402;DHT22;8310;44.626;11.176;2022-07-23T02:40:04;28.30;35.70
16402;DHT22;8310;44.626;11.176;2022-07-23T02:42:32;28.30;35.80
16402;DHT22;8310;44.626;11.176;2022-07-23T02:44:59;28.30;35.80
16402;DHT22;8310;44.626;11.176;2022-07-23T02:47:27;28.30;35.90
16402;DHT22;8310;44.626;11.176;2022-07-23T02:49:56;28.30;36.00
16402;DHT22;8310;44.626;11.176;2022-07-23T02:52:23;28.20;35.90
16402;DHT22;8310;44.626;11.176;2022-07-23T02:54:51;28.20;35.90
16402;DHT22;8310;44.626;11.176;2022-07-23T02:57:19;28.20;36.50
16402;DHT22;8310;44.626;11.176;2022-07-23T02:59:47;28.20;36.60
16402;DHT22;8310;44.626;11.176;2022-07-23T03:02:14;28.20;36.00
16402;DHT22;8310;44.626;11.176;2022-07-23T03:04:43;28.10;35.90
16402;DHT22;8310;44.626;11.176;2022-07-23T03:07:11;28.10;35.90
16402;DHT22;8310;44.626;11.176;2022-07-23T03:09:39;28.10;36.00
16402;DHT22;8310;44.626;11.176;2022-07-23T03:12:08;28.00;36.00
16402;DHT22;8310;44.626;11.176;2022-07-23T03:14:36;28.00;36.00
16402;DHT22;8310;44.626;11.176;2022-07-23T03:17:04;28.00;36.00
16402;DHT22;8310;44.626;11.176;2022-07-23T03:19:36;28.00;36.10
16402;DHT22;8310;44.626;11.176;2022-07-23T03:22:04;27.90;36.00
16402;DHT22;8310;44.626;11.176;2022-07-23T03:24:34;27.90;36.10
16402;DHT22;8310;44.626;11.176;2022-07-23T03:27:19;27.90;36.10
16402;DHT22;8310;44.626;11.176;2022-07-23T03:29:46;27.80;36.10
16402;DHT22;8310;44.626;11.176;2022-07-23T03:32:14;27.80;36.10
16402;DHT22;8310;44.626;11.176;2022-07-23T03:34:44;27.80;36.20
16402;DHT22;8310;44.626;11.176;2022-07-23T03:37:16;27.80;36.20
16402;DHT22;8310;44.626;11.176;2022-07-23T03:39:46;27.80;36.20
16402;DHT22;8310;44.626;11.176;2022-07-23T03:42:14;27.70;36.10
16402;DHT22;8310;44.626;11.176;2022-07-23T03:44:42;27.70;36.10
16402;DHT22;8310;44.626;11.176;2022-07-23T03:47:10;27.60;36.00
16402;DHT22;8310;44.626;11.176;2022-07-23T03:49:37;27.50;35.90
16402;DHT22;8310;44.626;11.176;2022-07-23T03:52:05;27.40;35.80
16402;DHT22;8310;44.626;11.176;2022-07-23T03:54:33;27.20;35.80
16402;DHT22;8310;44.626;11.176;2022-07-23T03:57:04;27.10;35.80
16402;DHT22;8310;44.626;11.176;2022-07-23T03:59:31;27.10;35.90
16402;DHT22;8310;44.626;11.176;2022-07-23T04:01:59;27.00;35.90
16402;DHT22;8310;44.626;11.176;2022-07-23T04:04:27;27.00;36.00
16402;DHT22;8310;44.626;11.176;2022-07-23T04:06:56;26.90;36.00
16402;DHT22;8310;44.626;11.176;2022-07-23T04:09:24;26.90;36.00
16402;DHT22;8310;44.626;11.176;2022-07-23T04:11:52;26.90;36.10
16402;DHT22;8310;44.626;11.176;2022-07-23T04:14:21;26.80;36.10
16402;DHT22;8310;44.626;11.176;2022-07-23T04:16:49;26.80;36.10
16402;DHT22;8310;44.626;11.176;2022-07-23T04:19:19;26.80;36.20
16402;DHT22;8310;44.626;11.176;2022-07-23T04:21:47;26.80;36.20
16402;DHT22;8310;44.626;11.176;2022-07-23T04:24:15;26.70;36.20
16402;DHT22;8310;44.626;11.176;2022-07-23T04:26:44;26.80;36.30
16402;DHT22;8310;44.626;11.176;2022-07-23T04:29:12;26.70;36.30
16402;DHT22;8310;44.626;11.176;2022-07-23T04:31:42;26.80;36.40
16402;DHT22;8310;44.626;11.176;2022-07-23T04:34:09;26.70;36.30
16402;DHT22;8310;44.626;11.176;2022-07-23T04:36:40;26.70;36.30
16402;DHT22;8310;44.626;11.176;2022-07-23T04:39:08;26.70;36.30
16402;DHT22;8310;44.626;11.176;2022-07-23T04:41:36;26.70;36.40
16402;DHT22;8310;44.626;11.176;2022-07-23T04:44:04;26.70;36.50
16402;DHT22;8310;44.626;11.176;2022-07-23T04:46:31;26.70;36.50
16402;DHT22;8310;44.626;11.176;2022-07-23T04:49:01;26.70;36.50
16402;DHT22;8310;44.626;11.176;2022-07-23T04:54:04;26.80;36.80
16402;DHT22;8310;44.626;11.176;2022-07-23T04:56:31;26.80;36.90
16402;DHT22;8310;44.626;11.176;2022-07-23T04:58:59;26.80;36.90
16402;DHT22;8310;44.626;11.176;2022-07-23T05:01:26;26.90;36.90
16402;DHT22;8310;44.626;11.176;2022-07-23T05:03:54;26.90;37.10
16402;DHT22;8310;44.626;11.176;2022-07-23T05:06:23;27.00;37.20
16402;DHT22;8310;44.626;11.176;2022-07-23T05:08:51;27.10;37.30
16402;DHT22;8310;44.626;11.176;2022-07-23T05:11:18;27.10;37.40
16402;DHT22;8310;44.626;11.176;2022-07-23T05:13:45;27.20;37.40
16402;DHT22;8310;44.626;11.176;2022-07-23T05:16:12;27.20;37.30
16402;DHT22;8310;44.626;11.176;2022-07-23T05:18:40;27.30;37.40
16402;DHT22;8310;44.626;11.176;2022-07-23T05:21:08;27.30;37.50
16402;DHT22;8310;44.626;11.176;2022-07-23T05:23:37;27.40;37.60
16402;DHT22;8310;44.626;11.176;2022-07-23T05:26:05;27.50;37.60
16402;DHT22;8310;44.626;11.176;2022-07-23T05:28:32;27.50;37.60
16402;DHT22;8310;44.626;11.176;2022-07-23T05:31:00;27.50;37.60
16402;DHT22;8310;44.626;11.176;2022-07-23T05:33:28;27.60;37.80
16402;DHT22;8310;44.626;11.176;2022-07-23T05:36:00;27.60;37.80
16402;DHT22;8310;44.626;11.176;2022-07-23T05:38:27;27.70;37.80
16402;DHT22;8310;44.626;11.176;2022-07-23T05:40:57;27.70;37.80
16402;DHT22;8310;44.626;11.176;2022-07-23T05:43:24;27.70;37.80
16402;DHT22;8310;44.626;11.176;2022-07-23T05:45:52;27.80;37.80
16402;DHT22;8310;44.626;11.176;2022-07-23T05:48:20;27.80;37.90
16402;DHT22;8310;44.626;11.176;2022-07-23T05:50:48;27.90;38.00
16402;DHT22;8310;44.626;11.176;2022-07-23T05:53:16;27.90;38.10
16402;DHT22;8310;44.626;11.176;2022-07-23T05:55:43;28.00;38.20
16402;DHT22;8310;44.626;11.176;2022-07-23T05:58:13;28.20;38.40
16402;DHT22;8310;44.626;11.176;2022-07-23T06:00:40;28.20;38.40
16402;DHT22;8310;44.626;11.176;2022-07-23T06:03:08;28.30;38.40
16402;DHT22;8310;44.626;11.176;2022-07-23T06:05:35;28.40;38.40
16402;DHT22;8310;44.626;11.176;2022-07-23T06:08:03;28.50;38.50
16402;DHT22;8310;44.626;11.176;2022-07-23T06:10:32;28.50;38.50
16402;DHT22;8310;44.626;11.176;2022-07-23T06:13:00;28.60;38.60
16402;DHT22;8310;44.626;11.176;2022-07-23T06:15:29;28.70;38.70
16402;DHT22;8310;44.626;11.176;2022-07-23T06:17:57;28.70;38.70
16402;DHT22;8310;44.626;11.176;2022-07-23T06:20:25;28.80;38.80
16402;DHT22;8310;44.626;11.176;2022-07-23T06:22:52;28.90;38.80
16402;DHT22;8310;44.626;11.176;2022-07-23T06:25:20;29.00;38.90
16402;DHT22;8310;44.626;11.176;2022-07-23T06:27:48;29.10;39.10
16402;DHT22;8310;44.626;11.176;2022-07-23T06:30:15;29.30;39.80
16402;DHT22;8310;44.626;11.176;2022-07-23T06:32:44;29.40;39.40
16402;DHT22;8310;44.626;11.176;2022-07-23T06:35:12;29.60;39.50
16402;DHT22;8310;44.626;11.176;2022-07-23T06:37:39;29.70;39.60
16402;DHT22;8310;44.626;11.176;2022-07-23T06:40:08;29.90;39.70
16402;DHT22;8310;44.626;11.176;2022-07-23T06:42:36;30.00;39.70
16402;DHT22;8310;44.626;11.176;2022-07-23T06:45:05;30.20;39.80
16402;DHT22;8310;44.626;11.176;2022-07-23T06:47:33;30.30;39.80
16402;DHT22;8310;44.626;11.176;2022-07-23T06:50:02;30.50;39.90
16402;DHT22;8310;44.626;11.176;2022-07-23T06:52:30;30.60;39.80
16402;DHT22;8310;44.626;11.176;2022-07-23T06:54:58;30.60;39.80
16402;DHT22;8310;44.626;11.176;2022-07-23T06:57:25;30.70;39.90
16402;DHT22;8310;44.626;11.176;2022-07-23T06:59:53;30.90;40.00
16402;DHT22;8310;44.626;11.176;2022-07-23T07:02:20;31.00;40.20
16402;DHT22;8310;44.626;11.176;2022-07-23T07:04:49;31.10;40.20
16402;DHT22;8310;44.626;11.176;2022-07-23T07:07:18;31.20;40.10
16402;DHT22;8310;44.626;11.176;2022-07-23T07:09:45;31.30;40.20
16402;DHT22;8310;44.626;11.176;2022-07-23T07:12:12;31.40;40.30
16402;DHT22;8310;44.626;11.176;2022-07-23T07:14:40;31.60;40.50
16402;DHT22;8310;44.626;11.176;2022-07-23T07:17:07;31.70;41.10
16402;DHT22;8310;44.626;11.176;2022-07-23T07:19:37;31.90;40.50
16402;DHT22;8310;44.626;11.176;2022-07-23T07:22:04;32.00;40.60
16402;DHT22;8310;44.626;11.176;2022-07-23T07:24:33;32.10;40.80
16402;DHT22;8310;44.626;11.176;2022-07-23T07:27:01;32.40;41.10
16402;DHT22;8310;44.626;11.176;2022-07-23T07:29:28;32.50;41.70
16402;DHT22;8310;44.626;11.176;2022-07-23T07:31:56;32.70;41.10
16402;DHT22;8310;44.626;11.176;2022-07-23T07:34:24;32.90;41.20
16402;DHT22;8310;44.626;11.176;2022-07-23T07:36:51;33.00;41.20
16402;DHT22;8310;44.626;11.176;2022-07-23T07:39:19;33.20;41.30
16402;DHT22;8310;44.626;11.176;2022-07-23T07:41:48;33.40;41.40
16402;DHT22;8310;44.626;11.176;2022-07-23T07:44:15;33.60;41.50
16402;DHT22;8310;44.626;11.176;2022-07-23T07:46:43;33.70;41.50
16402;DHT22;8310;44.626;11.176;2022-07-23T07:49:12;33.80;41.50
16402;DHT22;8310;44.626;11.176;2022-07-23T07:51:39;34.00;41.50
16402;DHT22;8310;44.626;11.176;2022-07-23T07:54:07;34.10;41.60
16402;DHT22;8310;44.626;11.176;2022-07-23T07:56:34;34.30;41.60
16402;DHT22;8310;44.626;11.176;2022-07-23T07:59:03;34.50;41.70
16402;DHT22;8310;44.626;11.176;2022-07-23T08:01:30;34.60;41.70
16402;DHT22;8310;44.626;11.176;2022-07-23T08:03:58;34.80;41.70
16402;DHT22;8310;44.626;11.176;2022-07-23T08:06:26;34.80;41.50
16402;DHT22;8310;44.626;11.176;2022-07-23T08:08:53;34.90;41.60
16402;DHT22;8310;44.626;11.176;2022-07-23T08:11:21;35.10;41.70
16402;DHT22;8310;44.626;11.176;2022-07-23T08:13:49;35.20;41.70
16402;DHT22;8310;44.626;11.176;2022-07-23T08:16:18;35.20;41.60
16402;DHT22;8310;44.626;11.176;2022-07-23T08:18:46;35.30;41.50
16402;DHT22;8310;44.626;11.176;2022-07-23T08:21:13;35.40;41.60
16402;DHT22;8310;44.626;11.176;2022-07-23T08:23:41;35.40;41.50
16402;DHT22;8310;44.626;11.176;2022-07-23T08:26:08;35.40;41.50
16402;DHT22;8310;44.626;11.176;2022-07-23T08:28:36;35.50;41.50
16402;DHT22;8310;44.626;11.176;2022-07-23T08:31:03;35.60;41.60
16402;DHT22;8310;44.626;11.176;2022-07-23T08:33:32;35.60;41.50
16402;DHT22;8310;44.626;11.176;2022-07-23T08:36:00;35.70;41.50
16402;DHT22;8310;44.626;11.176;2022-07-23T08:38:28;35.80;41.60
16402;DHT22;8310;44.626;11.176;2022-07-23T08:40:56;35.90;41.50
16402;DHT22;8310;44.626;11.176;2022-07-23T08:43:26;35.90;41.60
16402;DHT22;8310;44.626;11.176;2022-07-23T08:45:55;36.00;41.60
16402;DHT22;8310;44.626;11.176;2022-07-23T08:48:24;36.10;41.60
16402;DHT22;8310;44.626;11.176;2022-07-23T08:50:54;36.10;41.50
16402;DHT22;8310;44.626;11.176;2022-07-23T08:53:24;36.20;41.50
16402;DHT22;8310;44.626;11.176;2022-07-23T08:55:54;36.20;41.50
16402;DHT22;8310;44.626;11.176;2022-07-23T08:58:22;36.30;41.50
16402;DHT22;8310;44.626;11.176;2022-07-23T09:00:50;36.30;41.40
16402;DHT22;8310;44.626;11.176;2022-07-23T09:03:19;36.40;41.40
16402;DHT22;8310;44.626;11.176;2022-07-23T09:05:47;36.50;41.50
16402;DHT22;8310;44.626;11.176;2022-07-23T09:08:19;36.50;41.40
16402;DHT22;8310;44.626;11.176;2022-07-23T09:10:52;36.60;41.50
16402;DHT22;8310;44.626;11.176;2022-07-23T09:13:32;36.70;41.70
16402;DHT22;8310;44.626;11.176;2022-07-23T09:16:02;36.80;41.60
16402;DHT22;8310;44.626;11.176;2022-07-23T09:18:31;36.90;41.60
16402;DHT22;8310;44.626;11.176;2022-07-23T09:21:13;37.00;41.40
16402;DHT22;8310;44.626;11.176;2022-07-23T09:23:43;37.10;41.40
16402;DHT22;8310;44.626;11.176;2022-07-23T09:26:25;37.10;41.30
16402;DHT22;8310;44.626;11.176;2022-07-23T09:28:57;37.20;41.40
16402;DHT22;8310;44.626;11.176;2022-07-23T09:31:31;37.20;41.30
16402;DHT22;8310;44.626;11.176;2022-07-23T09:34:07;37.30;41.40
16402;DHT22;8310;44.626;11.176;2022-07-23T09:36:35;37.30;41.40
16402;DHT22;8310;44.626;11.176;2022-07-23T09:39:05;37.40;41.40
16402;DHT22;8310;44.626;11.176;2022-07-23T09:41:42;37.50;41.40
16402;DHT22;8310;44.626;11.176;2022-07-23T09:44:12;37.60;41.50
16402;DHT22;8310;44.626;11.176;2022-07-23T09:46:40;37.70;41.50
16402;DHT22;8310;44.626;11.176;2022-07-23T09:49:19;37.80;41.50
16402;DHT22;8310;44.626;11.176;2022-07-23T09:51:52;37.90;41.50
16402;DHT22;8310;44.626;11.176;2022-07-23T09:54:27;38.00;41.40
16402;DHT22;8310;44.626;11.176;2022-07-23T09:56:56;38.10;41.40
16402;DHT22;8310;44.626;11.176;2022-07-23T09:59:25;38.10;41.40
16402;DHT22;8310;44.626;11.176;2022-07-23T10:01:54;38.20;41.30
16402;DHT22;8310;44.626;11.176;2022-07-23T10:04:23;38.30;41.40
16402;DHT22;8310;44.626;11.176;2022-07-23T10:06:52;38.40;41.30
16402;DHT22;8310;44.626;11.176;2022-07-23T10:09:24;38.50;41.30
16402;DHT22;8310;44.626;11.176;2022-07-23T10:11:55;38.50;41.20
16402;DHT22;8310;44.626;11.176;2022-07-23T10:14:26;38.60;41.30
16402;DHT22;8310;44.626;11.176;2022-07-23T10:16:57;38.70;41.20
16402;DHT22;8310;44.626;11.176;2022-07-23T10:19:25;38.70;41.10
16402;DHT22;8310;44.626;11.176;2022-07-23T10:21:56;38.80;41.10
16402;DHT22;8310;44.626;11.176;2022-07-23T10:24:40;38.80;41.10
16402;DHT22;8310;44.626;11.176;2022-07-23T10:30:05;39.10;41.30
16402;DHT22;8310;44.626;11.176;2022-07-23T10:32:40;39.20;41.20
16402;DHT22;8310;44.626;11.176;2022-07-23T10:35:18;39.30;41.80
16402;DHT22;8310;44.626;11.176;2022-07-23T10:37:52;39.30;41.00
16402;DHT22;8310;44.626;11.176;2022-07-23T10:40:22;39.30;40.90
16402;DHT22;8310;44.626;11.176;2022-07-23T10:42:52;39.30;40.90
16402;DHT22;8310;44.626;11.176;2022-07-23T10:45:30;39.40;40.90
16402;DHT22;8310;44.626;11.176;2022-07-23T10:48:13;39.40;40.70
16402;DHT22;8310;44.626;11.176;2022-07-23T10:50:42;39.40;40.80
16402;DHT22;8310;44.626;11.176;2022-07-23T10:53:11;39.50;40.90
16402;DHT22;8310;44.626;11.176;2022-07-23T10:55:43;39.60;40.80
16402;DHT22;8310;44.626;11.176;2022-07-23T10:58:12;39.60;40.80
16402;DHT22;8310;44.626;11.176;2022-07-23T11:00:44;39.70;40.80
16402;DHT22;8310;44.626;11.176;2022-07-23T11:03:30;39.70;40.70
16402;DHT22;8310;44.626;11.176;2022-07-23T11:05:58;39.70;40.70
16402;DHT22;8310;44.626;11.176;2022-07-23T11:08:26;39.90;40.80
16402;DHT22;8310;44.626;11.176;2022-07-23T11:11:08;39.90;40.70
16402;DHT22;8310;44.626;11.176;2022-07-23T11:16:26;40.00;40.50
16402;DHT22;8310;44.626;11.176;2022-07-23T11:19:08;40.00;40.50
16402;DHT22;8310;44.626;11.176;2022-07-23T11:21:51;40.00;40.40
16402;DHT22;8310;44.626;11.176;2022-07-23T11:24:22;40.10;40.60
16402;DHT22;8310;44.626;11.176;2022-07-23T11:26:58;40.20;40.60
16402;DHT22;8310;44.626;11.176;2022-07-23T11:29:40;40.30;40.70
16402;DHT22;8310;44.626;11.176;2022-07-23T11:32:18;40.50;40.80
16402;DHT22;8310;44.626;11.176;2022-07-23T11:34:47;40.60;40.80
16402;DHT22;8310;44.626;11.176;2022-07-23T11:37:32;40.70;40.60
16402;DHT22;8310;44.626;11.176;2022-07-23T11:39:59;40.80;40.30
16402;DHT22;8310;44.626;11.176;2022-07-23T11:42:28;40.70;40.00
16402;DHT22;8310;44.626;11.176;2022-07-23T11:44:56;40.60;39.70
16402;DHT22;8310;44.626;11.176;2022-07-23T11:47:25;40.60;39.70
16402;DHT22;8310;44.626;11.176;2022-07-23T11:49:54;40.50;39.80
16402;DHT22;8310;44.626;11.176;2022-07-23T11:52:23;40.50;39.90
16402;DHT22;8310;44.626;11.176;2022-07-23T11:54:52;40.60;39.90
16402;DHT22;8310;44.626;11.176;2022-07-23T11:57:24;40.60;39.70
16402;DHT22;8310;44.626;11.176;2022-07-23T11:59:57;40.50;39.60
16402;DHT22;8310;44.626;11.176;2022-07-23T12:02:25;40.50;39.50
16402;DHT22;8310;44.626;11.176;2022-07-23T12:04:53;40.40;39.40
16402;DHT22;8310;44.626;11.176;2022-07-23T12:07:39;40.50;39.50
16402;DHT22;8310;44.626;11.176;2022-07-23T12:10:11;40.50;39.60
16402;DHT22;8310;44.626;11.176;2022-07-23T12:12:40;40.40;39.40
16402;DHT22;8310;44.626;11.176;2022-07-23T12:15:10;40.50;39.50
16402;DHT22;8310;44.626;11.176;2022-07-23T12:17:40;40.60;39.60
16402;DHT22;8310;44.626;11.176;2022-07-23T12:20:10;40.60;39.60
16402;DHT22;8310;44.626;11.176;2022-07-23T12:22:42;40.70;39.50
16402;DHT22;8310;44.626;11.176;2022-07-23T12:25:11;40.70;39.40
16402;DHT22;8310;44.626;11.176;2022-07-23T12:27:39;40.80;39.60
16402;DHT22;8310;44.626;11.176;2022-07-23T12:30:21;40.80;39.50
16402;DHT22;8310;44.626;11.176;2022-07-23T12:32:51;40.90;39.50
16402;DHT22;8310;44.626;11.176;2022-07-23T12:35:18;41.00;39.60
16402;DHT22;8310;44.626;11.176;2022-07-23T12:37:52;41.10;39.60
16402;DHT22;8310;44.626;11.176;2022-07-23T12:40:23;41.20;39.50
16402;DHT22;8310;44.626;11.176;2022-07-23T12:42:53;41.20;39.50
16402;DHT22;8310;44.626;11.176;2022-07-23T12:45:23;41.30;39.50
16402;DHT22;8310;44.626;11.176;2022-07-23T12:47:52;41.30;39.40
16402;DHT22;8310;44.626;11.176;2022-07-23T12:53:15;41.50;39.40
16402;DHT22;8310;44.626;11.176;2022-07-23T12:55:44;41.60;39.40
16402;DHT22;8310;44.626;11.176;2022-07-23T12:58:15;41.60;39.30
16402;DHT22;8310;44.626;11.176;2022-07-23T13:00:57;41.60;39.20
16402;DHT22;8310;44.626;11.176;2022-07-23T13:03:26;41.70;39.20
16402;DHT22;8310;44.626;11.176;2022-07-23T13:05:55;41.80;39.20
16402;DHT22;8310;44.626;11.176;2022-07-23T13:08:23;41.80;39.20
16402;DHT22;8310;44.626;11.176;2022-07-23T13:10:50;41.90;39.10
16402;DHT22;8310;44.626;11.176;2022-07-23T13:13:21;41.90;38.90
16402;DHT22;8310;44.626;11.176;2022-07-23T13:15:50;41.90;38.80
16402;DHT22;8310;44.626;11.176;2022-07-23T13:18:20;41.80;38.60
16402;DHT22;8310;44.626;11.176;2022-07-23T13:20:48;41.70;38.50
16402;DHT22;8310;44.626;11.176;2022-07-23T13:23:17;41.70;38.50
16402;DHT22;8310;44.626;11.176;2022-07-23T13:25:45;41.60;38.50
16402;DHT22;8310;44.626;11.176;2022-07-23T13:28:14;41.60;38.40
16402;DHT22;8310;44.626;11.176;2022-07-23T13:30:43;41.60;38.60
16402;DHT22;8310;44.626;11.176;2022-07-23T13:33:10;41.60;38.60
16402;DHT22;8310;44.626;11.176;2022-07-23T13:35:40;41.60;38.40
16402;DHT22;8310;44.626;11.176;2022-07-23T13:38:08;41.70;38.50
16402;DHT22;8310;44.626;11.176;2022-07-23T13:40:36;41.80;38.50
16402;DHT22;8310;44.626;11.176;2022-07-23T13:43:05;41.80;38.50
16402;DHT22;8310;44.626;11.176;2022-07-23T13:45:33;41.90;38.40
16402;DHT22;8310;44.626;11.176;2022-07-23T13:48:02;41.90;38.40
16402;DHT22;8310;44.626;11.176;2022-07-23T13:50:30;42.00;38.40
16402;DHT22;8310;44.626;11.176;2022-07-23T13:53:00;42.10;38.40
16402;DHT22;8310;44.626;11.176;2022-07-23T13:55:28;42.20;38.40
16402;DHT22;8310;44.626;11.176;2022-07-23T13:57:56;42.20;38.30
16402;DHT22;8310;44.626;11.176;2022-07-23T14:00:24;42.20;38.20
16402;DHT22;8310;44.626;11.176;2022-07-23T14:02:51;42.30;38.20
16402;DHT22;8310;44.626;11.176;2022-07-23T14:05:19;42.30;38.00
16402;DHT22;8310;44.626;11.176;2022-07-23T14:07:47;42.30;38.00
16402;DHT22;8310;44.626;11.176;2022-07-23T14:10:17;42.20;37.80
16402;DHT22;8310;44.626;11.176;2022-07-23T14:12:45;42.20;37.80
16402;DHT22;8310;44.626;11.176;2022-07-23T14:15:13;42.10;37.70
16402;DHT22;8310;44.626;11.176;2022-07-23T14:17:43;42.10;37.70
16402;DHT22;8310;44.626;11.176;2022-07-23T14:20:12;42.00;37.60
16402;DHT22;8310;44.626;11.176;2022-07-23T14:22:39;42.00;37.60
16402;DHT22;8310;44.626;11.176;2022-07-23T14:25:09;42.00;37.70
16402;DHT22;8310;44.626;11.176;2022-07-23T14:27:39;42.00;37.70
16402;DHT22;8310;44.626;11.176;2022-07-23T14:30:08;42.10;37.60
16402;DHT22;8310;44.626;11.176;2022-07-23T14:32:40;42.10;37.60
16402;DHT22;8310;44.626;11.176;2022-07-23T14:35:08;42.10;37.60
16402;DHT22;8310;44.626;11.176;2022-07-23T14:37:36;42.10;37.60
16402;DHT22;8310;44.626;11.176;2022-07-23T14:40:06;42.20;37.60
16402;DHT22;8310;44.626;11.176;2022-07-23T14:42:33;42.30;37.60
16402;DHT22;8310;44.626;11.176;2022-07-23T14:45:03;42.30;37.60
16402;DHT22;8310;44.626;11.176;2022-07-23T14:47:32;42.40;37.60
16402;DHT22;8310;44.626;11.176;2022-07-23T14:50:00;42.40;37.60
16402;DHT22;8310;44.626;11.176;2022-07-23T14:52:27;42.50;37.50
16402;DHT22;8310;44.626;11.176;2022-07-23T14:54:55;42.40;37.30
16402;DHT22;8310;44.626;11.176;2022-07-23T14:57:22;42.40;37.20
16402;DHT22;8310;44.626;11.176;2022-07-23T14:59:50;42.50;37.30
16402;DHT22;8310;44.626;11.176;2022-07-23T15:02:18;42.40;37.10
16402;DHT22;8310;44.626;11.176;2022-07-23T15:04:45;42.40;37.10
16402;DHT22;8310;44.626;11.176;2022-07-23T15:07:13;42.40;37.10
16402;DHT22;8310;44.626;11.176;2022-07-23T15:09:42;42.40;37.10
16402;DHT22;8310;44.626;11.176;2022-07-23T15:12:09;42.40;37.10
16402;DHT22;8310;44.626;11.176;2022-07-23T15:14:37;42.40;37.00
16402;DHT22;8310;44.626;11.176;2022-07-23T15:17:04;42.40;36.90
16402;DHT22;8310;44.626;11.176;2022-07-23T15:19:33;42.30;36.90
16402;DHT22;8310;44.626;11.176;2022-07-23T15:22:01;42.40;37.00
16402;DHT22;8310;44.626;11.176;2022-07-23T15:24:33;42.40;36.90
16402;DHT22;8310;44.626;11.176;2022-07-23T15:27:00;42.50;37.00
16402;DHT22;8310;44.626;11.176;2022-07-23T15:29:27;42.50;36.80
16402;DHT22;8310;44.626;11.176;2022-07-23T15:31:54;42.50;36.70
16402;DHT22;8310;44.626;11.176;2022-07-23T15:34:22;42.40;36.50
16402;DHT22;8310;44.626;11.176;2022-07-23T15:36:51;42.40;36.50
16402;DHT22;8310;44.626;11.176;2022-07-23T15:39:18;42.30;36.40
16402;DHT22;8310;44.626;11.176;2022-07-23T15:41:46;42.20;36.30
16402;DHT22;8310;44.626;11.176;2022-07-23T15:44:14;42.10;36.20
16402;DHT22;8310;44.626;11.176;2022-07-23T15:46:41;42.10;36.20
16402;DHT22;8310;44.626;11.176;2022-07-23T15:49:08;42.10;36.30
16402;DHT22;8310;44.626;11.176;2022-07-23T15:51:36;42.00;36.20
16402;DHT22;8310;44.626;11.176;2022-07-23T15:54:05;42.00;36.20